Time;durP1;ratioP1;P1;durP2;ratioP2;P2;SDS_P1;SDS_P2;PMS_P1;PMS_P2;Temp;Humidity;BMP_temperature;BMP_pressure;BME280_temperature;BME280_humidity;BME280_pressure;Samples;Min_cycle;Max_cycle;Signal;HPM_P1;HPM_P2
2022/02/19 00:00:00;;;;;;;21.02;8.93;;;;;;;1.94;67.20;97221.05;1722034;82;20994;-78
2022/02/19 00:02:27;;;;;;;25.27;9.53;;;;;;;1.93;67.17;97229.77;1721895;82;21408;-79
2022/02/19 00:04:54;;;;;;;27.67;10.58;;;;;;;1.93;67.71;97233.27;1738121;82;21485;-79
2022/02/19 00:07:20;;;;;;;27.70;10.30;;;;;;;1.93;68.34;97221.50;1743530;82;20992;-79
2022/02/19 00:09:47;;;;;;;25.92;11.45;;;;;;;1.93;67.73;97207.12;1722139;82;20959;-78
2022/02/19 00:12:14;;;;;;;26.82;11.30;;;;;;;1.92;67.48;97208.02;1721098;82;21607;-79
2022/02/19 00:14:40;;;;;;;22.85;10.30;;;;;;;1.87;67.49;97208.92;1747396;82;21455;-79
2022/02/19 00:17:07;;;;;;;31.45;12.53;;;;;;;1.84;67.67;97211.97;1747572;82;21385;-79
2022/02/19 00:19:33;;;;;;;27.25;12.15;;;;;;;1.82;68.04;97210.24;1747592;82;20964;-79
2022/02/19 00:22:00;;;;;;;23.25;10.15;;;;;;;1.77;68.06;97192.00;1726651;82;21063;-80
2022/02/19 00:24:26;;;;;;;25.75;11.15;;;;;;;1.74;68.10;97180.25;1746948;82;21011;-80
2022/02/19 00:26:54;;;;;;;21.97;10.48;;;;;;;1.72;68.06;97180.72;1747835;82;21437;-80
2022/02/19 00:29:21;;;;;;;22.37;9.80;;;;;;;1.68;68.11;97182.92;1747823;82;20976;-80
2022/02/19 00:31:48;;;;;;;19.32;8.60;;;;;;;1.63;68.34;97180.36;1748249;82;21429;-80
2022/02/19 00:34:15;;;;;;;20.88;9.20;;;;;;;1.61;68.14;97174.72;1750035;82;21067;-80
2022/02/19 00:36:42;;;;;;;18.90;9.13;;;;;;;1.54;68.15;97172.13;1749886;82;20984;-80
2022/02/19 00:39:08;;;;;;;20.62;9.33;;;;;;;1.47;68.52;97169.14;1726388;82;21023;-80
2022/02/19 00:41:38;;;;;;;20.88;10.00;;;;;;;1.44;69.60;97172.64;1681736;85;21050;-80
2022/02/19 00:44:08;;;;;;;19.50;9.45;;;;;;;1.39;68.79;97165.70;1666934;85;21005;-80
2022/02/19 00:46:36;;;;;;;18.98;8.88;;;;;;;1.34;69.04;97178.80;1721305;82;21066;-80
2022/02/19 00:49:04;;;;;;;20.75;9.10;;;;;;;1.33;68.89;97184.02;1681485;85;20975;-80
2022/02/19 00:51:31;;;;;;;20.88;9.15;;;;;;;1.27;69.01;97162.30;1665044;86;21036;-80
2022/02/19 00:53:59;;;;;;;23.45;8.60;;;;;;;1.26;69.07;97164.48;1674322;85;21052;-80
2022/02/19 00:56:26;;;;;;;19.90;8.13;;;;;;;1.26;69.16;97172.32;1676076;85;21567;-80
2022/02/19 00:58:54;;;;;;;20.82;8.50;;;;;;;1.25;69.15;97178.84;1675760;85;21369;-80
2022/02/19 01:01:23;;;;;;;20.00;8.65;;;;;;;1.21;69.07;97173.20;1671281;86;21447;-80
2022/02/19 01:03:52;;;;;;;21.50;8.25;;;;;;;1.19;69.16;97166.69;1646122;87;21032;-80
2022/02/19 01:06:20;;;;;;;27.37;8.23;;;;;;;1.16;69.41;97158.44;1649681;87;21017;-80
2022/02/19 01:08:49;;;;;;;24.95;10.28;;;;;;;1.14;69.30;97143.66;1650237;86;21005;-80
2022/02/19 01:11:16;;;;;;;20.88;7.87;;;;;;;1.12;69.45;97135.84;1657553;86;21056;-80
2022/02/19 01:13:44;;;;;;;16.80;7.60;;;;;;;1.09;69.41;97137.17;1655992;86;21025;-80
2022/02/19 01:16:10;;;;;;;19.23;7.60;;;;;;;1.08;69.43;97139.79;1657078;86;21001;-80
2022/02/19 01:18:37;;;;;;;19.27;8.23;;;;;;;1.05;70.49;97145.44;1721026;83;21038;-80
2022/02/19 01:21:04;;;;;;;17.42;8.00;;;;;;;0.99;70.31;97158.52;1719978;83;21043;-80
2022/02/19 01:23:30;;;;;;;23.90;8.13;;;;;;;0.98;69.96;97147.66;1721015;83;21106;-80
2022/02/19 01:25:58;;;;;;;26.27;9.55;;;;;;;0.93;71.56;97140.30;1720712;83;21015;-80
2022/02/19 01:28:24;;;;;;;21.48;8.85;;;;;;;0.88;70.38;97142.91;1720211;83;21390;-80
2022/02/19 01:30:51;;;;;;;20.20;9.03;;;;;;;0.89;70.41;97149.02;1720436;83;20976;-80
2022/02/19 01:33:18;;;;;;;22.90;8.88;;;;;;;0.92;70.34;97154.22;1719665;83;21080;-80
2022/02/19 01:35:45;;;;;;;19.40;8.63;;;;;;;0.88;70.54;97162.94;1720892;83;21054;-80
2022/02/19 01:38:11;;;;;;;21.55;8.68;;;;;;;0.86;70.75;97156.41;1719936;83;20976;-80
2022/02/19 01:40:38;;;;;;;20.45;8.55;;;;;;;0.88;70.59;97160.33;1702226;83;21397;-80
2022/02/19 01:43:05;;;;;;;23.87;8.93;;;;;;;0.87;70.55;97147.70;1719664;83;21011;-80
2022/02/19 01:45:32;;;;;;;23.87;8.33;;;;;;;0.79;73.28;97147.73;1721211;83;21457;-80
2022/02/19 01:47:59;;;;;;;19.52;8.75;;;;;;;0.77;71.38;97136.46;1719977;83;21480;-80
2022/02/19 01:50:26;;;;;;;19.17;8.10;;;;;;;0.76;71.45;97140.38;1720065;83;21042;-80
2022/02/19 01:52:53;;;;;;;20.23;7.80;;;;;;;0.75;71.29;97137.34;1721025;83;21492;-80
2022/02/19 01:55:21;;;;;;;26.07;8.73;;;;;;;0.75;71.61;97128.22;1728048;83;21055;-80
2022/02/19 01:57:50;;;;;;;21.52;9.20;;;;;;;0.72;72.84;97130.83;1719291;83;22169;-79
2022/02/19 02:00:16;;;;;;;20.97;9.20;;;;;;;0.68;74.57;97130.40;1720774;83;21023;-79
2022/02/19 02:02:52;;;;;;;20.75;8.78;;;;;;;0.71;72.37;97122.58;1726787;83;21699;-79
2022/02/19 02:05:37;;;;;;;25.25;8.68;;;;;;;0.71;72.64;97120.81;1720570;83;20996;-79
2022/02/19 02:08:07;;;;;;;15.32;8.50;;;;;;;0.72;72.28;97117.36;1720333;83;21488;-79
2022/02/19 02:10:35;;;;;;;21.90;8.70;;;;;;;0.77;71.95;97118.63;1719900;83;21035;-79
2022/02/19 02:13:04;;;;;;;19.90;8.43;;;;;;;0.77;71.79;97120.81;1718877;82;20952;-79
2022/02/19 02:15:34;;;;;;;24.77;9.35;;;;;;;0.78;72.43;97111.23;1720578;83;21024;-79
2022/02/19 02:18:03;;;;;;;21.45;9.00;;;;;;;0.77;71.89;97117.32;1719496;83;20953;-79
2022/02/19 02:20:29;;;;;;;21.57;8.45;;;;;;;0.72;72.22;97114.75;1720276;83;20980;-79
2022/02/19 02:22:57;;;;;;;20.92;9.18;;;;;;;0.74;72.06;97113.41;1720901;83;21071;-80
2022/02/19 02:25:32;;;;;;;21.93;9.98;;;;;;;0.79;72.10;97106.47;1719861;83;20988;-79
2022/02/19 02:28:00;;;;;;;24.45;9.60;;;;;;;0.82;72.14;97108.19;1720752;83;21141;-79
2022/02/19 02:30:27;;;;;;;32.63;10.60;;;;;;;0.85;72.20;97109.45;1719966;83;21181;-79
2022/02/19 02:32:56;;;;;;;24.07;9.83;;;;;;;0.85;72.29;97112.95;1714500;83;21044;-79
2022/02/19 02:35:23;;;;;;;17.32;9.28;;;;;;;0.86;72.25;97103.36;1709383;83;21008;-79
2022/02/19 02:37:50;;;;;;;23.65;10.48;;;;;;;0.84;72.35;97107.73;1686495;84;21469;-79
2022/02/19 02:40:16;;;;;;;26.48;10.55;;;;;;;0.85;72.25;97096.41;1709483;83;20996;-79
2022/02/19 02:42:43;;;;;;;21.48;10.45;;;;;;;0.85;72.31;97107.73;1708464;84;21003;-79
2022/02/19 02:45:11;;;;;;;27.55;10.35;;;;;;;0.83;72.70;97098.18;1708971;84;20984;-79
2022/02/19 02:47:43;;;;;;;23.00;10.18;;;;;;;0.84;72.58;97100.78;1709250;83;21104;-79
2022/02/19 02:50:09;;;;;;;24.30;10.00;;;;;;;0.84;72.55;97093.38;1708781;84;21069;-79
2022/02/19 02:52:37;;;;;;;23.85;10.08;;;;;;;0.81;72.70;97101.22;1708313;83;21446;-79
2022/02/19 02:55:07;;;;;;;21.65;10.53;;;;;;;0.80;73.62;97112.11;1709325;84;20997;-79
2022/02/19 02:57:36;;;;;;;21.15;9.65;;;;;;;0.78;72.84;97102.09;1708862;83;21395;-79
2022/02/19 03:00:07;;;;;;;23.98;10.50;;;;;;;0.79;72.99;97107.77;1709080;83;21001;-78
2022/02/19 03:02:36;;;;;;;21.93;9.78;;;;;;;0.81;72.89;97094.69;1709482;83;20988;-79
2022/02/19 03:05:07;;;;;;;29.77;10.63;;;;;;;0.82;72.95;97104.28;1709428;84;21422;-79
2022/02/19 03:07:36;;;;;;;21.75;10.98;;;;;;;0.83;72.88;97107.30;1708413;83;20956;-78
2022/02/19 03:10:06;;;;;;;30.77;11.35;;;;;;;0.83;72.77;97102.94;1687214;84;21020;-78
2022/02/19 03:12:33;;;;;;;24.63;10.53;;;;;;;0.81;72.68;97097.30;1709086;83;20956;-78
2022/02/19 03:15:00;;;;;;;24.35;10.40;;;;;;;0.80;72.85;97102.97;1708337;83;21012;-79
2022/02/19 03:17:26;;;;;;;25.00;10.65;;;;;;;0.77;73.12;97102.55;1708428;83;21024;-79
2022/02/19 03:19:53;;;;;;;21.65;9.68;;;;;;;0.74;72.85;97098.64;1709123;84;20996;-80
2022/02/19 03:22:20;;;;;;;25.23;9.48;;;;;;;0.72;72.91;97099.10;1686910;84;22151;-80
2022/02/19 03:24:46;;;;;;;22.32;10.45;;;;;;;0.72;72.92;97099.10;1708433;83;21064;-80
2022/02/19 03:27:13;;;;;;;21.20;9.85;;;;;;;0.73;73.14;97098.22;1708300;83;20976;-80
2022/02/19 03:29:40;;;;;;;20.12;9.45;;;;;;;0.73;73.17;97106.47;1709584;83;21020;-80
2022/02/19 03:32:08;;;;;;;27.55;9.43;;;;;;;0.76;73.12;97111.26;1708574;83;21457;-79
2022/02/19 03:34:35;;;;;;;20.60;8.80;;;;;;;0.77;73.21;97093.84;1719571;83;21005;-79
2022/02/19 03:37:01;;;;;;;19.77;8.60;;;;;;;0.80;73.33;97091.23;1702730;83;21040;-80
2022/02/19 03:39:28;;;;;;;16.70;8.45;;;;;;;0.85;73.20;97083.38;1721187;83;21433;-79
2022/02/19 03:41:55;;;;;;;17.25;7.97;;;;;;;0.84;73.52;97093.38;1720325;83;21023;-80
2022/02/19 03:44:22;;;;;;;17.40;8.20;;;;;;;0.83;73.34;97083.38;1720940;82;21059;-80
2022/02/19 03:46:51;;;;;;;19.55;8.48;;;;;;;0.85;73.13;97082.07;1719238;83;21457;-79
2022/02/19 03:49:25;;;;;;;18.02;7.97;;;;;;;0.82;73.22;97088.63;1719989;83;21043;-78
2022/02/19 03:51:52;;;;;;;16.45;7.97;;;;;;;0.78;73.19;97084.72;1720696;83;20964;-78
2022/02/19 03:54:18;;;;;;;15.95;7.37;;;;;;;0.75;73.34;97090.39;1720007;83;21004;-79
2022/02/19 03:56:46;;;;;;;18.92;7.97;;;;;;;0.72;73.21;97097.80;1720281;83;21008;-79
2022/02/19 03:59:14;;;;;;;17.50;6.72;;;;;;;0.68;73.49;97096.08;1720604;83;20976;-79
2022/02/19 04:01:41;;;;;;;16.27;7.42;;;;;;;0.64;73.41;97093.92;1720719;83;21038;-79
2022/02/19 04:04:10;;;;;;;15.38;7.58;;;;;;;0.58;75.14;97100.45;1720709;83;21080;-79
2022/02/19 04:06:37;;;;;;;16.23;7.30;;;;;;;0.55;73.97;97083.53;1720912;83;20976;-79
2022/02/19 04:09:05;;;;;;;19.25;7.37;;;;;;;0.54;73.83;97098.72;1703738;83;21047;-79
2022/02/19 04:11:32;;;;;;;18.55;7.80;;;;;;;0.51;73.85;97100.06;1721364;83;21369;-79
2022/02/19 04:13:58;;;;;;;19.57;7.22;;;;;;;0.50;74.01;97096.57;1719381;83;20975;-79
2022/02/19 04:16:28;;;;;;;14.35;6.15;;;;;;;0.50;74.37;97095.72;1721357;83;20980;-79
2022/02/19 04:18:55;;;;;;;17.20;7.05;;;;;;;0.50;74.46;97086.14;1720121;83;21490;-79
2022/02/19 04:21:23;;;;;;;20.52;7.97;;;;;;;0.52;74.61;97095.27;1687388;85;21410;-79
2022/02/19 04:23:49;;;;;;;18.60;7.17;;;;;;;0.51;75.20;97086.56;1689820;83;21028;-79
2022/02/19 04:26:17;;;;;;;15.90;7.08;;;;;;;0.52;75.69;97092.66;1721423;83;20975;-79
2022/02/19 04:28:45;;;;;;;14.40;6.30;;;;;;;0.47;75.62;97094.42;1719130;83;21672;-79
2022/02/19 04:31:13;;;;;;;13.35;6.05;;;;;;;0.46;75.59;97093.99;1697776;82;20967;-80
2022/02/19 04:33:40;;;;;;;15.88;6.47;;;;;;;0.47;75.30;97092.69;1703077;83;21505;-80
2022/02/19 04:36:07;;;;;;;13.08;6.42;;;;;;;0.46;75.03;97085.72;1685224;84;21005;-79
2022/02/19 04:38:35;;;;;;;19.32;6.60;;;;;;;0.42;74.78;97096.17;1681327;85;21529;-79
2022/02/19 04:41:02;;;;;;;17.82;6.22;;;;;;;0.32;75.08;97096.20;1706859;84;21000;-79
2022/02/19 04:43:28;;;;;;;16.52;6.40;;;;;;;0.26;74.87;97094.47;1709916;83;20996;-79
2022/02/19 04:45:55;;;;;;;12.90;6.05;;;;;;;0.22;74.62;97087.98;1692938;83;21139;-80
2022/02/19 04:48:23;;;;;;;18.30;6.10;;;;;;;0.20;74.66;97100.17;1681623;85;20980;-81
2022/02/19 04:50:51;;;;;;;23.38;7.10;;;;;;;0.12;74.58;97111.46;1691420;84;20996;-81
2022/02/19 04:53:18;;;;;;;20.65;6.62;;;;;;;0.10;74.54;97120.16;1703881;83;21641;-80
2022/02/19 04:55:45;;;;;;;17.67;7.35;;;;;;;0.07;74.92;97113.63;1697063;84;21071;-80
2022/02/19 04:58:16;;;;;;;15.50;6.45;;;;;;;0.03;74.82;97110.63;1709593;84;21000;-80
2022/02/19 05:00:43;;;;;;;14.18;6.42;;;;;;;0.01;74.76;97117.14;1709705;83;21044;-81
2022/02/19 05:03:22;;;;;;;16.10;6.55;;;;;;;-0.02;75.20;97114.11;1681474;85;21079;-80
2022/02/19 05:05:53;;;;;;;17.32;6.62;;;;;;;-0.07;75.59;97126.27;1699929;84;21064;-81
2022/02/19 05:08:20;;;;;;;16.85;5.83;;;;;;;-0.08;75.50;97123.66;1709825;83;21561;-80
2022/02/19 05:10:47;;;;;;;15.55;6.35;;;;;;;-0.11;76.14;97122.34;1709736;83;20953;-81
2022/02/19 05:13:15;;;;;;;13.05;6.08;;;;;;;-0.14;75.97;97130.61;1707944;84;21585;-80
2022/02/19 05:15:42;;;;;;;14.65;6.95;;;;;;;-0.10;75.84;97125.38;1708295;83;20961;-80
2022/02/19 05:18:10;;;;;;;14.33;6.25;;;;;;;-0.10;77.34;97131.89;1705599;84;21016;-80
2022/02/19 05:20:38;;;;;;;14.18;6.17;;;;;;;-0.08;76.71;97143.20;1709214;83;21027;-80
2022/02/19 05:23:06;;;;;;;14.55;6.72;;;;;;;-0.04;77.66;97139.27;1709796;83;21071;-78
2022/02/19 05:25:34;;;;;;;14.60;6.50;;;;;;;0.01;76.69;97140.58;1708415;84;20987;-78
2022/02/19 05:28:01;;;;;;;21.40;7.20;;;;;;;0.08;77.39;97144.91;1666263;86;20993;-79
2022/02/19 05:30:28;;;;;;;15.20;6.65;;;;;;;0.15;77.29;97152.70;1654917;87;21100;-78
2022/02/19 05:32:59;;;;;;;15.13;6.55;;;;;;;0.23;76.76;97165.29;1708886;83;21414;-79
2022/02/19 05:35:27;;;;;;;15.80;6.42;;;;;;;0.30;76.46;97161.82;1709119;83;20969;-79
2022/02/19 05:37:54;;;;;;;16.95;6.50;;;;;;;0.37;76.47;97162.22;1708708;83;21001;-79
2022/02/19 05:40:21;;;;;;;20.45;6.60;;;;;;;0.43;77.67;97169.17;1709306;83;21369;-79
2022/02/19 05:42:48;;;;;;;15.50;6.65;;;;;;;0.49;76.97;97165.66;1708274;84;20989;-79
2022/02/19 05:45:25;;;;;;;14.20;6.15;;;;;;;0.55;76.71;97176.09;1709544;83;21047;-79
2022/02/19 05:47:53;;;;;;;17.37;6.90;;;;;;;0.61;77.64;97173.88;1709362;83;22158;-79
2022/02/19 05:50:29;;;;;;;37.40;16.42;;;;;;;0.68;76.76;97173.01;1697938;84;21013;-79
2022/02/19 05:52:57;;;;;;;17.17;7.62;;;;;;;0.73;76.47;97171.25;1706917;84;21485;-79
2022/02/19 05:55:32;;;;;;;17.05;6.15;;;;;;;0.73;77.36;97181.69;1706298;83;21419;-79
2022/02/19 05:57:59;;;;;;;14.30;5.65;;;;;;;0.77;76.50;97182.11;1686193;84;21009;-78
2022/02/19 06:00:26;;;;;;;14.05;5.37;;;;;;;0.80;76.16;97166.88;1709577;84;21111;-78
2022/02/19 06:02:52;;;;;;;12.45;5.53;;;;;;;0.78;77.02;97166.00;1705874;84;20980;-79
2022/02/19 06:05:20;;;;;;;13.50;6.28;;;;;;;0.82;76.11;97165.58;1708332;83;21043;-79
2022/02/19 06:07:48;;;;;;;9.90;4.95;;;;;;;0.84;76.01;97159.48;1703684;84;21016;-79
2022/02/19 06:10:16;;;;;;;10.70;5.08;;;;;;;0.86;77.04;97165.97;1696028;83;21027;-79
2022/02/19 06:12:44;;;;;;;10.28;5.33;;;;;;;0.89;76.23;97165.55;1708531;83;21001;-79
2022/02/19 06:15:12;;;;;;;11.00;5.60;;;;;;;0.94;75.91;97162.02;1708647;84;21048;-79
2022/02/19 06:17:58;;;;;;;12.15;5.53;;;;;;;0.98;75.87;97177.67;1709763;84;20990;-78
2022/02/19 06:20:25;;;;;;;16.42;5.70;;;;;;;1.06;75.82;97175.02;1709121;83;20989;-79
2022/02/19 06:22:51;;;;;;;13.10;5.15;;;;;;;1.06;76.12;97175.02;1709351;83;21402;-78
2022/02/19 06:25:20;;;;;;;10.88;6.17;;;;;;;1.10;75.88;97168.92;1709332;84;20993;-79
2022/02/19 06:27:47;;;;;;;11.93;5.05;;;;;;;1.16;75.82;97167.57;1679967;85;21430;-78
2022/02/19 06:30:15;;;;;;;11.65;6.00;;;;;;;1.20;76.77;97178.86;1705830;84;21328;-78
2022/02/19 06:32:45;;;;;;;16.27;6.20;;;;;;;1.22;76.62;97177.55;1707841;84;21020;-78
2022/02/19 06:35:12;;;;;;;12.80;5.42;;;;;;;1.28;76.40;97183.61;1719663;83;21016;-79
2022/02/19 06:37:45;;;;;;;16.20;5.90;;;;;;;1.32;76.02;97172.70;1719931;83;20976;-79
2022/02/19 06:40:15;;;;;;;12.28;5.83;;;;;;;1.35;76.04;97175.73;1720777;83;21016;-79
2022/02/19 06:42:43;;;;;;;13.38;6.60;;;;;;;1.37;75.87;97171.39;1721478;83;20964;-79
2022/02/19 06:45:12;;;;;;;14.63;6.40;;;;;;;1.37;75.50;97174.84;1719200;82;21393;-79
2022/02/19 06:47:39;;;;;;;15.08;6.05;;;;;;;1.36;75.43;97167.89;1728267;82;21339;-79
2022/02/19 06:50:09;;;;;;;11.95;6.70;;;;;;;1.36;76.26;97167.89;1728673;82;20971;-79
2022/02/19 06:52:38;;;;;;;16.45;7.37;;;;;;;1.37;75.77;97170.92;1720393;83;21441;-78
2022/02/19 06:55:06;;;;;;;18.07;7.05;;;;;;;1.36;75.45;97165.28;1724780;82;21486;-77
2022/02/19 06:57:33;;;;;;;17.50;6.60;;;;;;;1.40;75.37;97166.13;1727272;82;20981;-79
2022/02/19 06:59:59;;;;;;;19.15;6.58;;;;;;;1.39;75.58;97171.80;1726949;82;20956;-78
2022/02/19 07:02:26;;;;;;;12.78;6.75;;;;;;;1.40;75.52;97164.39;1721074;83;21461;-77
2022/02/19 07:04:53;;;;;;;12.93;5.92;;;;;;;1.50;75.59;97166.95;1725831;82;21410;-79
2022/02/19 07:07:19;;;;;;;16.97;7.15;;;;;;;1.60;75.51;97163.81;1721476;83;21011;-78
2022/02/19 07:09:46;;;;;;;18.95;9.10;;;;;;;1.71;75.46;97160.25;1721365;83;21027;-79
2022/02/19 07:12:13;;;;;;;20.92;9.30;;;;;;;1.88;75.51;97155.34;1719485;82;21137;-79
2022/02/19 07:14:40;;;;;;;18.00;8.55;;;;;;;2.04;75.22;97153.44;1721911;82;21031;-79
2022/02/19 07:17:09;;;;;;;21.75;9.88;;;;;;;2.21;75.10;97158.52;1721628;83;20976;-78
2022/02/19 07:19:38;;;;;;;18.50;8.85;;;;;;;2.37;74.76;97159.23;1720131;83;21039;-82
2022/02/19 07:22:05;;;;;;;17.67;7.67;;;;;;;2.50;73.44;97159.13;1720132;83;21027;-78
2022/02/19 07:24:33;;;;;;;23.83;8.93;;;;;;;2.60;73.79;97165.98;1719950;83;20992;-77
2022/02/19 07:27:00;;;;;;;22.90;9.25;;;;;;;2.70;73.24;97158.03;1719548;83;21056;-78
2022/02/19 07:29:28;;;;;;;22.35;10.18;;;;;;;2.80;73.32;97171.86;1701744;83;21008;-77
2022/02/19 07:31:54;;;;;;;26.93;10.32;;;;;;;2.87;73.01;97177.00;1719773;83;21409;-77
2022/02/19 07:34:21;;;;;;;22.20;11.12;;;;;;;2.93;72.98;97177.38;1715181;83;21080;-77
2022/02/19 07:36:48;;;;;;;19.42;10.35;;;;;;;2.99;72.39;97181.68;1708584;83;21005;-78
2022/02/19 07:39:15;;;;;;;22.75;10.70;;;;;;;3.04;72.43;97181.18;1708443;83;21116;-78
2022/02/19 07:41:43;;;;;;;25.32;10.35;;;;;;;3.08;71.87;97188.11;1708604;83;21080;-78
2022/02/19 07:44:11;;;;;;;23.87;9.83;;;;;;;3.12;71.79;97196.33;1710331;83;21005;-78
2022/02/19 07:46:43;;;;;;;27.90;10.23;;;;;;;3.17;71.21;97206.30;1707451;84;20977;-79
2022/02/19 08:00:36;;;;;;;;;;;;;;;3.27;70.10;97248.08;1712402;83;20996;-77
2022/02/19 08:03:03;;;;;;;24.55;10.70;;;;;;;3.26;70.21;97243.73;1710027;83;20088;-77
2022/02/19 08:05:30;;;;;;;22.65;10.18;;;;;;;3.26;70.05;97245.05;1711528;83;20976;-77
2022/02/19 08:07:56;;;;;;;23.60;10.30;;;;;;;3.24;69.92;97247.67;1709749;83;21031;-77
2022/02/19 08:10:23;;;;;;;22.02;10.70;;;;;;;3.25;70.12;97257.72;1709213;83;20965;-77
2022/02/19 08:12:50;;;;;;;20.50;10.32;;;;;;;3.27;69.68;97269.91;1708608;83;20969;-77
2022/02/19 08:15:16;;;;;;;20.48;10.13;;;;;;;3.30;69.78;97276.87;1708355;83;21040;-77
2022/02/19 08:17:42;;;;;;;20.48;10.30;;;;;;;3.36;69.99;97289.03;1708592;83;20981;-77
2022/02/19 08:20:09;;;;;;;22.17;9.30;;;;;;;3.39;69.73;97286.35;1709884;83;21044;-77
2022/02/19 08:22:36;;;;;;;20.48;8.88;;;;;;;3.47;69.93;97295.00;1709874;83;20988;-77
2022/02/19 08:25:03;;;;;;;18.12;8.55;;;;;;;3.51;69.61;97291.45;1710110;84;21016;-77
2022/02/19 08:27:34;;;;;;;47.58;19.35;;;;;;;3.56;69.63;97300.55;1709967;83;20973;-78
2022/02/19 08:29:58;;;;;;;34.67;14.68;;;;;;;3.63;69.66;97296.11;1709956;83;20988;-77
2022/02/19 08:32:24;;;;;;;23.65;10.35;;;;;;;3.71;69.50;97291.64;1710034;83;21454;-78
2022/02/19 08:34:51;;;;;;;23.52;10.72;;;;;;;3.77;69.08;97294.17;1715737;83;21087;-78
2022/02/19 08:37:17;;;;;;;27.22;10.85;;;;;;;3.87;69.39;97305.84;1721435;83;21020;-79
2022/02/19 08:39:44;;;;;;;24.10;10.18;;;;;;;3.94;69.04;97317.53;1721215;83;21604;-77
2022/02/19 08:44:52;;;;;;;23.10;10.03;;;;;;;4.13;68.40;97317.70;1800885;79;23340;-78
2022/02/19 08:47:19;;;;;;;18.87;8.83;;;;;;;4.14;68.47;97310.25;1753252;81;21028;-78
2022/02/19 08:49:45;;;;;;;15.83;8.08;;;;;;;4.22;67.72;97307.08;1753614;82;21465;-79
2022/02/19 08:52:12;;;;;;;21.37;11.03;;;;;;;4.29;67.34;97298.67;1754541;82;21040;-79
2022/02/19 08:54:38;;;;;;;21.33;9.03;;;;;;;4.36;67.30;97306.85;1754351;82;21009;-78
2022/02/19 08:57:06;;;;;;;29.05;12.10;;;;;;;4.44;67.52;97313.33;1754437;82;21029;-78
2022/02/19 08:59:33;;;;;;;17.23;10.13;;;;;;;4.52;67.22;97321.06;1754379;81;20973;-79
2022/02/19 09:01:59;;;;;;;21.10;8.45;;;;;;;4.57;67.36;97325.33;1754531;82;21000;-78
2022/02/19 09:04:26;;;;;;;16.93;7.42;;;;;;;4.64;66.81;97326.56;1754409;82;21568;-79
2022/02/19 09:06:52;;;;;;;14.38;8.03;;;;;;;4.70;66.76;97329.08;1754530;82;21004;-79
2022/02/19 09:09:19;;;;;;;21.82;9.68;;;;;;;4.73;64.61;97331.63;1756119;80;21001;-79
2022/02/19 09:11:45;;;;;;;20.48;9.73;;;;;;;4.75;65.39;97342.99;1725793;83;21099;-79
2022/02/19 09:14:12;;;;;;;17.02;8.43;;;;;;;4.78;65.73;97346.02;1727722;83;21023;-78
2022/02/19 09:16:39;;;;;;;18.20;8.28;;;;;;;4.82;65.78;97344.61;1725722;83;21419;-79
2022/02/19 09:19:07;;;;;;;36.45;17.05;;;;;;;4.84;65.77;97352.46;1725622;83;21032;-78
2022/02/19 09:21:36;;;;;;;20.92;10.05;;;;;;;4.87;65.67;97356.36;1725547;83;21156;-79
2022/02/19 09:24:03;;;;;;;23.10;9.70;;;;;;;4.91;65.67;97366.36;1725553;83;21011;-78
2022/02/19 09:26:30;;;;;;;22.50;9.60;;;;;;;4.94;65.13;97371.57;1725372;83;21016;-78
2022/02/19 09:28:57;;;;;;;20.40;8.80;;;;;;;4.98;65.72;97375.88;1725291;83;21004;-78
2022/02/19 09:31:23;;;;;;;20.88;8.58;;;;;;;5.02;65.48;97373.59;1725546;83;21468;-78
2022/02/19 09:33:50;;;;;;;19.20;8.48;;;;;;;5.05;64.44;97368.73;1725172;83;21064;-77
2022/02/19 09:36:17;;;;;;;16.60;8.90;;;;;;;5.10;64.98;97376.09;1725571;83;20964;-77
2022/02/19 09:38:44;;;;;;;20.52;8.60;;;;;;;5.15;65.15;97372.96;1725509;83;21027;-77
2022/02/19 09:41:14;;;;;;;23.07;9.13;;;;;;;5.14;63.54;97352.81;1718702;83;21601;-77
2022/02/19 09:43:41;;;;;;;20.12;10.18;;;;;;;5.18;64.60;97362.84;1709865;83;21089;-77
2022/02/19 09:46:13;;;;;;;23.50;9.88;;;;;;;5.24;64.42;97370.61;1700589;84;21026;-77
2022/02/19 09:48:45;;;;;;;16.20;8.85;;;;;;;5.31;64.27;97370.05;1712859;83;21020;-79
2022/02/19 09:51:12;;;;;;;23.02;10.10;;;;;;;5.39;63.92;97378.64;1725414;83;21020;-77
2022/02/19 09:53:40;;;;;;;16.42;9.65;;;;;;;5.50;63.37;97379.75;1725255;83;21031;-78
2022/02/19 09:56:07;;;;;;;23.07;11.53;;;;;;;5.61;64.37;97376.45;1725013;83;21026;-78
2022/02/19 09:58:33;;;;;;;27.22;11.78;;;;;;;5.73;63.79;97384.55;1724966;83;21068;-78
2022/02/19 10:01:24;;;;;;;24.67;10.58;;;;;;;5.89;63.64;97385.12;1724869;83;21016;-78
2022/02/19 10:04:02;;;;;;;29.87;10.70;;;;;;;6.09;63.90;97383.86;1724989;83;20969;-78
2022/02/19 10:06:33;;;;;;;21.90;10.40;;;;;;;6.21;63.55;97381.42;1724952;83;21008;-78
2022/02/19 10:09:16;;;;;;;24.15;10.63;;;;;;;6.31;62.58;97377.68;1720312;83;21016;-77
2022/02/19 10:11:47;;;;;;;20.35;10.20;;;;;;;6.45;62.89;97389.20;1712476;84;21017;-77
2022/02/19 10:14:31;;;;;;;28.05;11.08;;;;;;;6.63;62.58;97384.42;1749212;81;21036;-77
2022/02/19 10:17:16;;;;;;;22.55;10.48;;;;;;;6.80;60.81;97383.14;1749342;82;21017;-78
2022/02/19 10:19:58;;;;;;;24.77;10.68;;;;;;;6.92;62.22;97378.91;1763408;81;21026;-77
2022/02/19 10:22:28;;;;;;;23.87;11.38;;;;;;;7.03;62.41;97383.92;1772509;81;20977;-77
2022/02/19 10:24:58;;;;;;;26.52;11.65;;;;;;;7.09;62.26;97374.53;1775089;80;21004;-77
2022/02/19 10:27:51;;;;;;;20.30;10.38;;;;;;;7.11;60.73;97374.03;1775095;81;21012;-78
2022/02/19 10:30:18;;;;;;;27.98;12.13;;;;;;;7.17;61.88;97382.67;1774044;81;21104;-78
2022/02/19 10:32:57;;;;;;;24.12;11.45;;;;;;;7.29;61.77;97385.45;1775172;80;20977;-77
2022/02/19 10:35:41;;;;;;;25.68;11.73;;;;;;;7.43;61.86;97386.42;1774947;81;21246;-77
2022/02/19 10:38:13;;;;;;;30.05;15.03;;;;;;;7.63;61.77;97385.86;1775063;80;20973;-77
2022/02/19 10:40:47;;;;;;;27.93;12.35;;;;;;;7.90;62.14;97388.17;1759727;80;20985;-77
2022/02/19 10:43:20;;;;;;;23.60;11.90;;;;;;;8.16;60.06;97388.34;1750196;81;21052;-78
2022/02/19 10:45:59;;;;;;;24.57;10.55;;;;;;;8.46;60.75;97381.72;1762787;81;21391;-78
2022/02/19 10:48:36;;;;;;;23.55;10.85;;;;;;;8.70;58.95;97385.86;1762635;81;21036;-77
2022/02/19 10:51:16;;;;;;;18.92;9.05;;;;;;;8.96;60.41;97384.14;1761846;81;21490;-77
2022/02/19 10:53:49;;;;;;;22.02;9.70;;;;;;;9.13;58.26;97386.22;1726544;83;21035;-78
2022/02/19 10:56:17;;;;;;;18.30;8.03;;;;;;;9.27;58.13;97391.51;1725194;83;21012;-78
2022/02/19 10:59:05;;;;;;;3.12;1.90;;;;;;;9.36;55.81;97381.50;1726559;83;21015;-78
2022/02/19 11:01:47;;;;;;;4.60;2.00;;;;;;;9.60;54.91;97373.59;1726619;83;21047;-78
2022/02/19 11:04:19;;;;;;;3.62;1.75;;;;;;;9.81;53.97;97380.38;1726392;83;21047;-78
2022/02/19 11:06:47;;;;;;;1.92;1.25;;;;;;;9.98;53.19;97396.96;1726453;83;21056;-78
2022/02/19 11:09:15;;;;;;;3.05;1.20;;;;;;;10.09;49.54;97393.05;1726196;83;21035;-78
2022/02/19 11:11:46;;;;;;;3.22;1.30;;;;;;;10.17;47.67;97406.39;1724901;83;21020;-78
2022/02/19 11:14:15;;;;;;;2.37;1.10;;;;;;;10.25;48.89;97407.88;1713154;84;21102;-78
2022/02/19 11:16:48;;;;;;;2.17;1.57;;;;;;;10.25;46.65;97418.47;1723348;83;21025;-79
2022/02/19 11:19:15;;;;;;;2.20;1.07;;;;;;;10.26;47.48;97419.73;1691141;84;21045;-79
2022/02/19 11:21:43;;;;;;;3.40;1.35;;;;;;;10.24;45.21;97428.66;1715858;84;20989;-76
2022/02/19 11:24:10;;;;;;;2.35;1.20;;;;;;;10.25;44.89;97429.06;1715808;83;21053;-76
2022/02/19 11:26:37;;;;;;;3.33;1.62;;;;;;;10.20;44.32;97426.59;1734660;83;21012;-77
2022/02/19 11:29:10;;;;;;;1.55;1.20;;;;;;;10.17;44.90;97426.70;1736706;82;21039;-78
2022/02/19 11:31:38;;;;;;;2.37;1.20;;;;;;;10.19;46.16;97427.53;1736561;82;21083;-78
2022/02/19 11:34:06;;;;;;;2.52;1.30;;;;;;;10.11;43.91;97434.88;1736631;82;20984;-77
2022/02/19 11:36:33;;;;;;;3.35;1.65;;;;;;;10.11;43.61;97434.88;1736597;82;21051;-78
2022/02/19 11:39:04;;;;;;;3.95;1.70;;;;;;;10.11;43.58;97433.11;1735975;83;21008;-78
2022/02/19 11:41:42;;;;;;;2.33;1.42;;;;;;;10.12;44.30;97437.48;1736622;83;21019;-78
2022/02/19 11:44:23;;;;;;;2.42;1.20;;;;;;;10.10;44.27;97435.80;1732017;83;21004;-78
2022/02/19 11:46:52;;;;;;;2.40;1.60;;;;;;;10.09;45.25;97440.22;1723118;83;21025;-77
2022/02/19 11:49:29;;;;;;;3.33;1.67;;;;;;;10.10;45.20;97439.78;1724947;83;21450;-77
2022/02/19 11:52:14;;;;;;;4.25;1.60;;;;;;;10.11;45.87;97431.78;1724846;83;21036;-77